createdAt,value
2019-02-25T00:01:37.002Z,103691.45
2019-02-25T00:04:08.591Z,103689.03
2019-02-25T00:06:41.998Z,103694.25
2019-02-25T00:09:13.653Z,103688.43
2019-02-25T00:11:46.591Z,103678.60
2019-02-25T00:14:20.094Z,103685.27
2019-02-25T00:16:52.710Z,103677.95
2019-02-25T00:19:24.222Z,103676.60
2019-02-25T00:21:56.548Z,103680.75
2019-02-25T00:24:28.330Z,103678.70
2019-02-25T00:26:59.671Z,103681.77
2019-02-25T00:29:31.027Z,103683.83
2019-02-25T00:32:02.581Z,103688.95
2019-02-25T00:34:34.741Z,103685.38
2019-02-25T00:37:06.164Z,103677.02
2019-02-25T00:39:37.878Z,103671.45
2019-02-25T00:42:09.206Z,103670.30
2019-02-25T00:44:40.486Z,103675.36
2019-02-25T00:47:16.116Z,103670.09
2019-02-25T00:49:47.872Z,103672.39
2019-02-25T00:52:19.157Z,103671.09
2019-02-25T00:54:50.617Z,103667.78
2019-02-25T00:57:22.841Z,103660.61
2019-02-25T00:59:54.476Z,103655.04
2019-02-25T01:02:25.974Z,103666.28
2019-02-25T01:04:57.994Z,103665.59
2019-02-25T01:07:29.305Z,103657.92
2019-02-25T01:10:00.963Z,103661.31
2019-02-25T01:12:34.081Z,103665.75
2019-02-25T01:15:06.264Z,103650.44
2019-02-25T01:17:38.040Z,103659.73
2019-02-25T01:20:10.193Z,103664.55
2019-02-25T01:22:41.920Z,103666.20
2019-02-25T01:25:14.306Z,103665.41
2019-02-25T01:27:45.662Z,103657.88
2019-02-25T01:30:18.115Z,103658.05
2019-02-25T01:32:49.544Z,103656.75
2019-02-25T01:35:21.220Z,103654.80
2019-02-25T01:37:52.627Z,103656.30
2019-02-25T01:40:24.353Z,103659.77
2019-02-25T01:42:56.635Z,103663.97
2019-02-25T01:45:28.687Z,103655.12
2019-02-25T01:48:00.112Z,103655.16
2019-02-25T01:50:32.099Z,103650.16
2019-02-25T01:53:03.351Z,103657.68
2019-02-25T01:55:34.721Z,103666.82
2019-02-25T01:58:07.035Z,103671.75
2019-02-25T02:00:39.750Z,103670.06
2019-02-25T02:03:11.174Z,103672.39
2019-02-25T02:05:42.587Z,103670.30
2019-02-25T02:08:15.163Z,103670.14
2019-02-25T02:10:46.754Z,103668.84
2019-02-25T02:13:18.590Z,103653.45
2019-02-25T02:15:50.124Z,103649.30
2019-02-25T02:18:25.667Z,103639.68
2019-02-25T02:21:00.501Z,103635.30
2019-02-25T02:23:32.283Z,103632.11
2019-02-25T02:26:03.690Z,103623.13
2019-02-25T02:28:35.122Z,103613.83
2019-02-25T02:31:06.377Z,103616.14
2019-02-25T02:33:37.687Z,103623.66
2019-02-25T02:36:11.743Z,103617.20
2019-02-25T02:38:42.850Z,103619.97
2019-02-25T02:41:14.485Z,103626.07
2019-02-25T02:43:45.865Z,103634.84
2019-02-25T02:46:23.770Z,103629.41
2019-02-25T02:49:02.071Z,103619.34
2019-02-25T02:51:34.208Z,103619.94
2019-02-25T02:54:05.993Z,103620.11
2019-02-25T02:56:37.933Z,103625.28
2019-02-25T02:59:09.356Z,103614.66
2019-02-25T03:01:41.037Z,103614.42
2019-02-25T03:04:13.200Z,103604.42
2019-02-25T03:06:44.837Z,103593.09
2019-02-25T03:09:16.205Z,103600.93
2019-02-25T03:11:47.592Z,103609.20
2019-02-25T03:14:18.902Z,103601.33
2019-02-25T03:16:50.301Z,103594.42
2019-02-25T03:19:22.804Z,103592.69
2019-02-25T03:21:54.185Z,103598.72
2019-02-25T03:24:25.568Z,103599.00
2019-02-25T03:26:56.908Z,103602.22
2019-02-25T03:29:28.742Z,103608.16
2019-02-25T03:31:59.953Z,103604.89
2019-02-25T03:34:31.847Z,103607.44
2019-02-25T03:37:03.191Z,103613.98
2019-02-25T03:39:34.942Z,103622.05
2019-02-25T03:42:06.398Z,103623.16
2019-02-25T03:44:38.608Z,103620.85
2019-02-25T03:47:10.145Z,103621.15
2019-02-25T03:49:42.079Z,103619.94
2019-02-25T03:52:13.552Z,103618.70
2019-02-25T03:54:45.589Z,103622.12
2019-02-25T03:57:16.989Z,103619.19
2019-02-25T03:59:49.206Z,103627.74
2019-02-25T04:02:20.667Z,103627.30
2019-02-25T04:04:51.937Z,103622.86
2019-02-25T04:07:23.371Z,103634.30
2019-02-25T04:09:55.794Z,103645.20
2019-02-25T04:12:28.315Z,103651.16
2019-02-25T04:14:59.748Z,103650.48
2019-02-25T04:24:19.272Z,103670.62
2019-02-25T04:27:08.196Z,103678.04
2019-02-25T04:29:39.680Z,103694.77
2019-02-25T04:32:11.050Z,103699.83
2019-02-25T04:34:42.339Z,103714.25
2019-02-25T04:37:13.851Z,103727.92
2019-02-25T04:39:45.557Z,103752.89
2019-02-25T04:42:18.099Z,103777.78
2019-02-25T04:44:51.347Z,103788.21
2019-02-25T04:47:23.598Z,103807.52
2019-02-25T04:49:55.387Z,103828.83
2019-02-25T04:52:27.144Z,103849.03
2019-02-25T04:54:58.388Z,103876.96
2019-02-25T04:57:29.706Z,103903.18
2019-02-25T05:00:01.091Z,103941.53
2019-02-25T05:02:32.980Z,103980.89
2019-02-25T05:05:04.393Z,104002.76
2019-02-25T05:07:36.431Z,104006.97
2019-02-25T05:10:08.547Z,104010.39
2019-02-25T05:12:42.091Z,104008.65
2019-02-25T05:15:16.212Z,104021.89
2019-02-25T05:17:48.073Z,104038.16
2019-02-25T05:20:19.999Z,104036.06
2019-02-25T05:22:52.435Z,104039.31
2019-02-25T05:25:24.451Z,104046.13
2019-02-25T05:27:57.065Z,104044.02
2019-02-25T05:30:28.668Z,104051.05
2019-02-25T05:33:00.430Z,104058.48
2019-02-25T05:35:32.094Z,104069.49
2019-02-25T05:38:04.155Z,104074.77
2019-02-25T05:40:35.763Z,104085.88
2019-02-25T05:43:07.792Z,104104.63
2019-02-25T05:45:41.215Z,104120.41
2019-02-25T05:48:12.973Z,104129.17
2019-02-25T05:50:46.185Z,104146.80
2019-02-25T05:53:18.024Z,104144.27
2019-02-25T05:55:49.620Z,104147.09
2019-02-25T05:58:21.331Z,104150.73
2019-02-25T06:00:52.816Z,104159.45
2019-02-25T06:03:25.813Z,104151.58
2019-02-25T06:05:58.515Z,104162.59
2019-02-25T06:08:30.634Z,104164.44
2019-02-25T06:11:02.053Z,104170.48
2019-02-25T06:13:36.490Z,104178.33
2019-02-25T06:16:08.096Z,104202.40
2019-02-25T06:18:39.564Z,104213.50
2019-02-25T06:21:13.878Z,104221.24
2019-02-25T06:23:48.464Z,104254.38
2019-02-25T06:26:19.883Z,104239.78
2019-02-25T06:28:51.569Z,104204.01
2019-02-25T06:31:25.397Z,104192.25
2019-02-25T06:33:56.650Z,104190.37
2019-02-25T06:36:28.033Z,104180.82
2019-02-25T06:38:59.840Z,104169.64
2019-02-25T06:41:31.319Z,104163.23
2019-02-25T06:44:02.836Z,104195.23
2019-02-25T06:46:34.268Z,104179.27
2019-02-25T06:49:06.190Z,104077.19
2019-02-25T06:51:37.944Z,103968.11
2019-02-25T06:54:10.258Z,103939.66
2019-02-25T06:56:41.724Z,103924.97
2019-02-25T06:59:13.189Z,103925.08
2019-02-25T07:01:47.120Z,103909.30
2019-02-25T07:04:39.787Z,103913.73
2019-02-25T07:07:14.696Z,103909.05
2019-02-25T07:09:57.391Z,103896.15
2019-02-25T07:12:38.395Z,103879.96
2019-02-25T07:15:41.742Z,103904.04
2019-02-25T07:18:45.352Z,103941.94
2019-02-25T07:21:38.402Z,103964.98
2019-02-25T07:24:34.535Z,103961.48
2019-02-25T07:27:24.024Z,103958.30
2019-02-25T07:33:37.462Z,103925.98
2019-02-25T07:36:27.808Z,103918.61
2019-02-25T07:39:17.361Z,103927.13
2019-02-25T07:42:07.167Z,103927.22
2019-02-25T07:45:03.553Z,103929.78
2019-02-25T07:47:53.836Z,103956.31
2019-02-25T07:50:31.675Z,103969.45
2019-02-25T07:53:18.955Z,103958.37
2019-02-25T07:56:17.819Z,103965.21
2019-02-25T07:59:10.742Z,103950.38
2019-02-25T08:02:04.173Z,103939.72
2019-02-25T08:05:01.386Z,103939.55
2019-02-25T08:07:56.174Z,103941.49
2019-02-25T08:10:46.098Z,103938.77
2019-02-25T08:13:26.371Z,103937.47
2019-02-25T08:16:15.393Z,103942.19
2019-02-25T08:19:04.565Z,103940.06
2019-02-25T08:21:55.181Z,103947.61
2019-02-25T08:24:48.675Z,103950.86
2019-02-25T08:27:32.942Z,103957.75
2019-02-25T08:30:35.961Z,103947.41
2019-02-25T08:33:32.916Z,103934.08
2019-02-25T08:36:52.439Z,103937.84
2019-02-25T08:39:38.333Z,103989.66
2019-02-25T08:42:19.881Z,104005.01
2019-02-25T08:44:57.933Z,104012.35
2019-02-25T08:47:34.859Z,104012.94
2019-02-25T08:50:29.402Z,104007.27
2019-02-25T08:53:03.143Z,104026.20
2019-02-25T08:55:36.887Z,104011.22
2019-02-25T08:58:09.391Z,104005.67
2019-02-25T09:00:42.255Z,104006.48
2019-02-25T09:03:14.495Z,104018.27
2019-02-25T09:05:46.090Z,104018.57
2019-02-25T09:08:18.088Z,104026.83
2019-02-25T09:10:50.667Z,104033.07
2019-02-25T09:13:23.930Z,104024.48
2019-02-25T09:15:57.657Z,104030.55
2019-02-25T09:18:29.123Z,104027.93
2019-02-25T09:23:52.901Z,104007.75
2019-02-25T09:26:24.921Z,104007.94
2019-02-25T09:28:57.487Z,104001.89
2019-02-25T09:31:31.533Z,104001.66
2019-02-25T09:34:04.445Z,104007.98
2019-02-25T09:36:35.967Z,104005.14
2019-02-25T09:39:16.671Z,103988.44
2019-02-25T09:41:49.063Z,103985.45
2019-02-25T09:44:20.746Z,103974.47
2019-02-25T09:46:52.509Z,103971.41
2019-02-25T09:49:25.320Z,103951.52
2019-02-25T09:52:16.411Z,103944.95
2019-02-25T09:54:48.166Z,103944.92
2019-02-25T09:57:23.074Z,103947.69
2019-02-25T09:59:55.064Z,103941.13
2019-02-25T10:02:33.907Z,103885.05
2019-02-25T10:05:10.993Z,103877.11
2019-02-25T10:07:43.525Z,103874.11
2019-02-25T10:10:15.435Z,103875.48
2019-02-25T10:12:50.911Z,103876.93
2019-02-25T10:15:25.326Z,103866.72
2019-02-25T10:17:58.113Z,103857.02
2019-02-25T10:20:30.402Z,103847.65
2019-02-25T10:23:02.053Z,103838.73
2019-02-25T10:25:34.064Z,103842.70
2019-02-25T10:28:07.471Z,103853.37
2019-02-25T10:30:39.535Z,103849.87
2019-02-25T10:33:11.739Z,103854.39
2019-02-25T10:35:43.316Z,103848.11
2019-02-25T10:38:15.061Z,103842.75
2019-02-25T10:40:47.506Z,103836.52
2019-02-25T10:43:19.925Z,103841.47
2019-02-25T10:45:52.666Z,103836.64
2019-02-25T10:48:25.848Z,103834.45
2019-02-25T10:50:58.150Z,103828.21
2019-02-25T10:53:30.294Z,103810.80
2019-02-25T10:56:16.725Z,103805.42
2019-02-25T10:58:54.084Z,103802.74
2019-02-25T11:01:25.567Z,103810.36
2019-02-25T11:03:58.193Z,103801.45
2019-02-25T11:06:35.433Z,103796.53
2019-02-25T11:09:26.545Z,103774.17
2019-02-25T11:12:00.125Z,103779.11
2019-02-25T11:14:35.731Z,103784.91
2019-02-25T11:17:07.123Z,103777.76
2019-02-25T11:19:39.860Z,103776.89
2019-02-25T11:22:12.606Z,103768.36
2019-02-25T11:24:46.841Z,103755.88
2019-02-25T11:27:18.634Z,103755.42
2019-02-25T11:29:51.433Z,103755.85
2019-02-25T11:32:24.408Z,103747.35
2019-02-25T11:34:57.028Z,103753.14
2019-02-25T11:37:28.642Z,103758.50
2019-02-25T11:40:01.865Z,103759.75
2019-02-25T11:42:35.094Z,103755.32
2019-02-25T11:45:08.157Z,103750.73
2019-02-25T11:47:39.662Z,103746.77
2019-02-25T11:50:15.410Z,103748.58
2019-02-25T11:52:47.002Z,103745.95
2019-02-25T11:55:21.861Z,103762.02
2019-02-25T11:57:53.060Z,103756.15
2019-02-25T12:00:26.034Z,103751.14
2019-02-25T12:02:57.481Z,103746.17
2019-02-25T12:05:28.937Z,103733.22
2019-02-25T12:08:00.562Z,103731.80
2019-02-25T12:10:31.982Z,103728.28
2019-02-25T12:13:04.305Z,103730.06
2019-02-25T12:15:36.200Z,103723.43
2019-02-25T12:18:07.806Z,103739.16
2019-02-25T12:20:39.437Z,103749.39
2019-02-25T12:23:11.886Z,103752.80
2019-02-25T12:25:43.407Z,103742.94
2019-02-25T12:28:16.937Z,103740.66
2019-02-25T12:30:48.829Z,103748.79
2019-02-25T12:33:20.215Z,103738.09
2019-02-25T12:35:52.023Z,103740.25
2019-02-25T12:38:23.789Z,103736.64
2019-02-25T12:40:55.767Z,103726.77
2019-02-25T12:43:27.786Z,103734.80
2019-02-25T12:46:00.659Z,103730.34
2019-02-25T12:48:32.247Z,103725.31
2019-02-25T12:51:04.228Z,103715.77
2019-02-25T12:53:41.276Z,103701.81
2019-02-25T12:56:13.560Z,103695.05
2019-02-25T12:58:45.123Z,103701.42
2019-02-25T13:01:17.500Z,103698.86
2019-02-25T13:03:49.055Z,103693.53
2019-02-25T13:06:20.960Z,103696.94
2019-02-25T13:08:52.495Z,103685.21
2019-02-25T13:11:30.341Z,103677.29
2019-02-25T13:14:01.949Z,103676.56
2019-02-25T13:16:34.288Z,103689.89
2019-02-25T13:19:08.526Z,103685.58
2019-02-25T13:21:40.513Z,103680.00
2019-02-25T13:24:11.906Z,103670.16
2019-02-25T13:26:44.180Z,103672.92
2019-02-25T13:29:19.283Z,103660.05
2019-02-25T13:31:50.846Z,103661.22
2019-02-25T13:34:24.293Z,103653.14
2019-02-25T13:36:56.169Z,103643.65
2019-02-25T13:39:27.788Z,103642.18
2019-02-25T13:41:59.510Z,103637.15
2019-02-25T13:44:31.444Z,103628.78
2019-02-25T13:47:04.826Z,103612.19
2019-02-25T13:49:36.791Z,103608.84
2019-02-25T13:52:08.709Z,103612.00
2019-02-25T13:54:41.646Z,103612.81
2019-02-25T13:57:21.881Z,103603.64
2019-02-25T14:00:55.478Z,103606.27
2019-02-25T14:03:27.204Z,103603.50
2019-02-25T14:05:59.031Z,103604.52
2019-02-25T14:08:30.928Z,103609.94
2019-02-25T14:11:02.497Z,103618.05
2019-02-25T14:13:34.205Z,103618.48
2019-02-25T14:16:06.046Z,103615.78
2019-02-25T14:18:38.394Z,103609.94
2019-02-25T14:21:10.436Z,103613.77
2019-02-25T14:23:44.924Z,103614.22
2019-02-25T14:26:18.907Z,103599.09
2019-02-25T14:28:50.505Z,103581.21
2019-02-25T14:31:22.754Z,103587.77
2019-02-25T14:33:59.102Z,103592.25
2019-02-25T14:36:31.429Z,103585.53
2019-02-25T14:39:06.002Z,103581.06
2019-02-25T14:41:43.684Z,103575.05
2019-02-25T14:44:17.154Z,103572.75
2019-02-25T14:46:49.265Z,103564.71
2019-02-25T14:49:22.211Z,103565.52
2019-02-25T14:51:55.110Z,103556.97
2019-02-25T14:54:30.034Z,103556.61
2019-02-25T14:57:06.190Z,103558.94
2019-02-25T14:59:40.638Z,103548.50
2019-02-25T15:02:15.716Z,103548.45
2019-02-25T15:04:50.031Z,103551.98
2019-02-25T15:07:22.460Z,103543.53
2019-02-25T15:09:58.469Z,103542.65
2019-02-25T15:12:34.263Z,103549.45
2019-02-25T15:15:08.737Z,103537.83
2019-02-25T15:17:41.979Z,103538.35
2019-02-25T15:20:16.378Z,103542.78
2019-02-25T15:22:50.261Z,103543.73
2019-02-25T15:25:22.404Z,103537.53
2019-02-25T15:27:54.687Z,103538.08
2019-02-25T15:30:33.470Z,103542.05
2019-02-25T15:33:05.954Z,103560.05
2019-02-25T15:35:40.045Z,103568.09
2019-02-25T15:38:15.055Z,103531.34
2019-02-25T15:40:46.608Z,103525.55
2019-02-25T15:43:20.323Z,103522.36
2019-02-25T15:45:54.465Z,103512.97
2019-02-25T15:48:27.255Z,103506.69
2019-02-25T15:51:00.712Z,103507.59
2019-02-25T15:53:33.970Z,103517.03
2019-02-25T15:56:08.084Z,103515.77
2019-02-25T15:58:40.586Z,103520.31
2019-02-25T16:01:12.842Z,103529.95
2019-02-25T16:03:44.380Z,103532.17
2019-02-25T16:06:16.495Z,103539.88
2019-02-25T16:08:51.898Z,103535.78
2019-02-25T16:11:25.576Z,103544.64
2019-02-25T16:14:00.613Z,103538.23
2019-02-25T16:16:35.789Z,103544.09
2019-02-25T16:19:13.484Z,103549.08
2019-02-25T16:21:44.544Z,103548.18
2019-02-25T16:24:18.596Z,103547.38
2019-02-25T16:26:57.944Z,103550.97
2019-02-25T16:29:29.750Z,103553.31
2019-02-25T16:32:01.996Z,103560.98
2019-02-25T16:34:34.623Z,103548.50
2019-02-25T16:37:07.455Z,103545.88
2019-02-25T16:39:39.310Z,103540.14
2019-02-25T16:42:11.302Z,103546.38
2019-02-25T16:44:44.538Z,103556.19
2019-02-25T16:47:16.437Z,103550.47
2019-02-25T16:49:50.372Z,103553.16
2019-02-25T16:52:24.381Z,103553.61
2019-02-25T16:54:55.695Z,103549.61
2019-02-25T16:57:27.528Z,103542.88
2019-02-25T16:59:59.808Z,103548.77
2019-02-25T17:02:35.901Z,103545.23
2019-02-25T17:05:08.049Z,103544.80
2019-02-25T17:07:40.504Z,103564.09
2019-02-25T17:10:16.747Z,103564.55
2019-02-25T17:12:49.928Z,103573.97
2019-02-25T17:15:21.609Z,103597.23
2019-02-25T17:17:52.946Z,103645.95
2019-02-25T17:20:27.820Z,103670.95
2019-02-25T17:22:59.779Z,103698.22
2019-02-25T17:25:33.983Z,103705.80
2019-02-25T17:28:07.616Z,103699.56
2019-02-25T17:30:38.584Z,103696.41
2019-02-25T17:33:12.240Z,103694.59
2019-02-25T17:35:45.342Z,103688.80
2019-02-25T17:38:18.189Z,103691.48
2019-02-25T17:40:50.281Z,103705.75
2019-02-25T17:43:22.040Z,103705.23
2019-02-25T17:45:55.982Z,103723.06
2019-02-25T17:48:27.445Z,103736.86
2019-02-25T17:50:59.900Z,103762.20
2019-02-25T17:53:32.889Z,103773.38
2019-02-25T17:56:04.457Z,103783.20
2019-02-25T17:58:38.233Z,103792.14
2019-02-25T18:01:10.157Z,103786.29
2019-02-25T18:04:02.541Z,103797.41
2019-02-25T18:06:37.110Z,103790.76
2019-02-25T18:09:10.725Z,103789.88
2019-02-25T18:11:45.391Z,103786.22
2019-02-25T18:14:20.093Z,103775.46
2019-02-25T18:16:51.843Z,103775.98
2019-02-25T18:19:24.996Z,103764.41
2019-02-25T18:21:58.897Z,103764.70
2019-02-25T18:24:32.427Z,103770.81
2019-02-25T18:27:06.925Z,103772.00
2019-02-25T18:29:38.850Z,103771.14
2019-02-25T18:32:13.291Z,103757.55
2019-02-25T18:34:45.656Z,103758.84
2019-02-25T18:37:17.870Z,103761.94
2019-02-25T18:39:52.133Z,103762.47
2019-02-25T18:42:36.623Z,103759.02
2019-02-25T18:45:20.464Z,103762.39
2019-02-25T18:47:53.364Z,103767.73
2019-02-25T18:50:26.835Z,103756.21
2019-02-25T18:52:59.621Z,103745.86
2019-02-25T18:55:34.523Z,103741.70
2019-02-25T18:58:07.972Z,103737.28
2019-02-25T19:00:44.671Z,103735.39
2019-02-25T19:03:16.989Z,103737.55
2019-02-25T19:05:48.994Z,103711.36
2019-02-25T19:08:22.976Z,103708.48
2019-02-25T19:10:57.148Z,103704.46
2019-02-25T19:13:29.975Z,103708.28
2019-02-25T19:16:01.948Z,103705.17
2019-02-25T19:18:36.243Z,103703.39
2019-02-25T19:21:09.250Z,103692.79
2019-02-25T19:23:42.292Z,103693.16
2019-02-25T19:26:19.622Z,103686.38
2019-02-25T19:28:52.493Z,103673.65
2019-02-25T19:31:26.054Z,103656.87
2019-02-25T19:34:00.894Z,103653.57
2019-02-25T19:36:36.686Z,103645.50
2019-02-25T19:39:14.204Z,103633.00
2019-02-25T19:41:47.121Z,103627.19
2019-02-25T19:44:18.691Z,103625.70
2019-02-25T19:46:51.254Z,103623.11
2019-02-25T19:49:24.819Z,103623.07
2019-02-25T19:51:56.468Z,103622.13
2019-02-25T19:54:38.476Z,103614.20
2019-02-25T19:57:14.056Z,103617.73
2019-02-25T19:59:50.259Z,103625.64
2019-02-25T20:02:22.624Z,103629.97
2019-02-25T20:04:57.002Z,103622.13
2019-02-25T20:07:31.448Z,103626.01
2019-02-25T20:10:11.600Z,103615.98
2019-02-25T20:12:43.466Z,103624.65
2019-02-25T20:15:24.727Z,103637.00
2019-02-25T20:17:55.277Z,103634.45
2019-02-25T20:20:34.681Z,103628.95
2019-02-25T20:23:08.572Z,103635.51
2019-02-25T20:25:44.727Z,103642.16
2019-02-25T20:28:16.410Z,103631.22
2019-02-25T20:30:49.371Z,103630.72
2019-02-25T20:33:23.587Z,103632.05
2019-02-25T20:35:56.040Z,103630.79
2019-02-25T20:38:32.032Z,103635.52
2019-02-25T20:41:03.698Z,103640.23
2019-02-25T20:43:36.710Z,103651.56
2019-02-25T20:46:09.955Z,103643.77
2019-02-25T20:48:46.495Z,103646.09
2019-02-25T20:51:15.983Z,103647.29
2019-02-25T20:53:50.799Z,103657.34
2019-02-25T20:56:26.526Z,103677.99
2019-02-25T20:59:01.154Z,103679.98
2019-02-25T21:01:51.099Z,103673.86
2019-02-25T21:04:24.800Z,103669.84
2019-02-25T21:06:56.946Z,103679.75
2019-02-25T21:09:29.457Z,103675.91
2019-02-25T21:12:02.535Z,103673.27
2019-02-25T21:14:35.767Z,103580.01
2019-02-25T21:17:08.396Z,103583.05
2019-02-25T21:19:56.050Z,103584.03
2019-02-25T21:22:29.966Z,103566.88
2019-02-25T21:25:04.753Z,103574.88
2019-02-25T21:27:37.001Z,103574.39
2019-02-25T21:30:13.209Z,103574.50
2019-02-25T21:32:47.189Z,103582.83
2019-02-25T21:35:18.159Z,103580.84
2019-02-25T21:37:52.295Z,103572.93
2019-02-25T21:40:26.474Z,103567.19
2019-02-25T21:42:56.943Z,103582.13
2019-02-25T21:45:30.148Z,103583.30
2019-02-25T21:48:04.679Z,103583.80
2019-02-25T21:50:38.188Z,103589.48
2019-02-25T21:53:11.705Z,103593.92
2019-02-25T21:55:44.544Z,103601.36
2019-02-25T21:58:18.339Z,103592.23
2019-02-25T22:00:50.760Z,103581.84
2019-02-25T22:03:22.093Z,103585.87
2019-02-25T22:05:56.221Z,103587.03
2019-02-25T22:08:29.108Z,103576.96
2019-02-25T22:11:12.418Z,103574.02
2019-02-25T22:13:37.345Z,103575.46
2019-02-25T22:16:09.326Z,103559.77
2019-02-25T22:18:42.626Z,103554.64
2019-02-25T22:21:16.600Z,103572.63
2019-02-25T22:23:49.439Z,103580.22
2019-02-25T22:26:24.404Z,103564.39
2019-02-25T22:28:59.533Z,103555.77
2019-02-25T22:31:32.972Z,103564.41
2019-02-25T22:34:06.770Z,103562.88
2019-02-25T22:36:43.899Z,103563.54
2019-02-25T22:39:15.983Z,103563.53
2019-02-25T22:41:48.768Z,103567.26
2019-02-25T22:44:24.757Z,103555.42
2019-02-25T22:47:00.208Z,103537.59
2019-02-25T22:49:32.482Z,103556.49
2019-02-25T22:52:05.749Z,103558.69
2019-02-25T22:54:41.062Z,103551.04
2019-02-25T22:57:13.739Z,103552.13
2019-02-25T22:59:50.245Z,103555.13
2019-02-25T23:02:19.772Z,103555.09
2019-02-25T23:04:54.108Z,103542.78
2019-02-25T23:07:26.726Z,103544.30
2019-02-25T23:09:58.749Z,103538.45
2019-02-25T23:12:31.107Z,103538.41
2019-02-25T23:15:05.537Z,103533.95
2019-02-25T23:17:42.361Z,103548.56
2019-02-25T23:20:17.250Z,103561.20
2019-02-25T23:22:49.988Z,103568.05
2019-02-25T23:25:22.523Z,103562.53
2019-02-25T23:27:56.180Z,103559.95
2019-02-25T23:30:29.895Z,103564.77
2019-02-25T23:33:02.461Z,103563.39
2019-02-25T23:35:36.410Z,103545.63
2019-02-25T23:38:07.762Z,103548.66
2019-02-25T23:40:42.769Z,103553.98
2019-02-25T23:43:16.703Z,103555.52
2019-02-25T23:45:48.474Z,103567.50
2019-02-25T23:48:41.796Z,103572.59
2019-02-25T23:51:14.139Z,103568.03
2019-02-25T23:53:46.556Z,103564.48
2019-02-25T23:56:22.806Z,103564.77
2019-02-25T23:58:57.219Z,103548.80
